createdAt,value
2022-12-09T00:03:58.410Z,15.57
2022-12-09T00:09:00.617Z,15.43
2022-12-09T00:14:02.732Z,15.15
2022-12-09T00:19:04.787Z,13.88
2022-12-09T00:24:08.024Z,15.25
2022-12-09T00:29:11.368Z,12.45
2022-12-09T00:34:14.731Z,12.82
2022-12-09T00:39:16.821Z,15.32
2022-12-09T00:44:19.158Z,14.77
2022-12-09T00:49:21.292Z,17.50
2022-12-09T00:54:23.106Z,16.00
2022-12-09T00:59:26.031Z,12.38
2022-12-09T01:04:28.313Z,14.30
2022-12-09T01:09:30.328Z,12.88
2022-12-09T01:14:32.470Z,11.80
2022-12-09T01:19:34.457Z,11.32
2022-12-09T01:24:36.829Z,11.82
2022-12-09T01:29:38.885Z,10.55
2022-12-09T01:34:40.953Z,8.98
2022-12-09T01:39:43.833Z,11.95
2022-12-09T01:45:19.873Z,8.18
2022-12-09T01:50:22.170Z,6.47
2022-12-09T01:55:25.264Z,6.78
2022-12-09T02:00:27.503Z,6.72
2022-12-09T02:05:32.660Z,4.63
2022-12-09T02:10:37.088Z,6.50
2022-12-09T02:15:50.345Z,5.70
2022-12-09T02:21:05.746Z,5.95
2022-12-09T02:26:24.174Z,5.75
2022-12-09T02:32:06.859Z,5.28
2022-12-09T02:37:20.898Z,5.72
2022-12-09T02:42:32.394Z,6.07
2022-12-09T02:47:41.553Z,6.68
2022-12-09T02:52:47.830Z,5.90
2022-12-09T02:57:57.729Z,6.03
2022-12-09T03:03:03.802Z,5.63
2022-12-09T03:08:05.729Z,7.25
2022-12-09T03:13:18.287Z,5.82
2022-12-09T03:18:22.322Z,6.47
2022-12-09T03:23:26.809Z,7.97
2022-12-09T03:28:33.543Z,7.40
2022-12-09T03:33:35.544Z,8.53
2022-12-09T03:38:42.107Z,10.07
2022-12-09T03:43:52.340Z,11.57
2022-12-09T03:48:54.266Z,9.10
2022-12-09T03:54:30.965Z,9.88
2022-12-09T03:59:35.995Z,10.73
2022-12-09T04:04:42.268Z,11.18
2022-12-09T04:09:44.623Z,9.73
2022-12-09T04:14:46.539Z,9.80
2022-12-09T04:19:48.598Z,9.43
2022-12-09T04:24:50.371Z,8.30
2022-12-09T04:29:52.110Z,10.85
2022-12-09T04:34:54.308Z,9.77
2022-12-09T04:39:56.355Z,10.15
2022-12-09T04:44:58.138Z,10.07
2022-12-09T04:50:00.624Z,10.95
2022-12-09T04:55:02.711Z,8.75
2022-12-09T05:00:07.317Z,10.85
2022-12-09T05:05:09.857Z,11.35
2022-12-09T05:10:12.121Z,10.30
2022-12-09T05:15:14.623Z,8.05
2022-12-09T05:20:17.099Z,8.38
2022-12-09T05:25:19.237Z,9.43
2022-12-09T05:30:21.259Z,9.93
2022-12-09T05:35:23.210Z,10.13
2022-12-09T05:40:25.407Z,11.05
2022-12-09T05:45:27.398Z,63.40
2022-12-09T05:50:29.608Z,42.35
2022-12-09T05:55:32.745Z,34.65
2022-12-09T06:00:34.684Z,43.33
2022-12-09T06:05:37.713Z,15.18
2022-12-09T06:10:41.336Z,18.75
2022-12-09T06:15:43.779Z,14.45
2022-12-09T06:20:46.638Z,12.43
2022-12-09T06:25:48.532Z,12.73
2022-12-09T06:30:50.624Z,10.45
2022-12-09T06:35:52.785Z,9.77
2022-12-09T06:40:55.324Z,24.20
2022-12-09T06:45:57.187Z,18.52
2022-12-09T06:50:59.858Z,16.75
2022-12-09T06:56:11.488Z,12.77
2022-12-09T07:01:23.093Z,12.98
2022-12-09T07:06:33.650Z,11.90
2022-12-09T07:11:36.819Z,26.95
2022-12-09T07:16:39.374Z,25.42
2022-12-09T07:21:41.256Z,13.13
2022-12-09T07:26:43.384Z,16.00
2022-12-09T07:31:45.585Z,14.73
2022-12-09T07:36:47.523Z,19.85
2022-12-09T07:41:57.750Z,12.65
2022-12-09T07:47:04.134Z,10.98
2022-12-09T07:52:06.397Z,10.20
2022-12-09T07:57:08.749Z,10.77
2022-12-09T08:02:10.663Z,10.88
2022-12-09T08:07:13.881Z,9.07
2022-12-09T08:12:15.940Z,10.32
2022-12-09T08:17:18.581Z,13.07
2022-12-09T08:22:23.654Z,12.07
2022-12-09T08:27:26.035Z,19.08
2022-12-09T08:32:28.087Z,14.68
2022-12-09T08:37:30.472Z,18.58
2022-12-09T08:42:32.409Z,13.90
2022-12-09T08:47:34.698Z,17.27
2022-12-09T08:52:40.513Z,16.35
2022-12-09T08:57:43.224Z,26.80
2022-12-09T09:02:45.708Z,20.48
2022-12-09T09:07:47.868Z,19.33
2022-12-09T09:12:50.023Z,19.67
2022-12-09T09:17:53.539Z,21.13
2022-12-09T09:23:02.608Z,23.13
2022-12-09T09:28:05.087Z,20.02
2022-12-09T09:33:08.687Z,19.83
2022-12-09T09:38:10.754Z,27.95
2022-12-09T09:43:18.256Z,17.27
2022-12-09T09:48:23.958Z,18.75
2022-12-09T09:53:30.872Z,16.25
2022-12-09T09:59:08.822Z,19.65
2022-12-09T10:04:46.132Z,18.58
2022-12-09T10:09:57.657Z,23.20
2022-12-09T10:15:41.276Z,16.25
2022-12-09T10:20:45.912Z,16.10
2022-12-09T10:25:52.828Z,20.55
2022-12-09T10:30:55.962Z,19.80
2022-12-09T10:36:00.107Z,19.25
2022-12-09T10:41:12.476Z,19.63
2022-12-09T10:46:22.083Z,19.35
2022-12-09T10:51:32.015Z,18.98
2022-12-09T10:56:37.751Z,15.45
2022-12-09T11:01:53.853Z,21.27
2022-12-09T11:07:03.295Z,20.23
2022-12-09T11:12:08.067Z,16.13
2022-12-09T11:17:24.288Z,15.98
2022-12-09T11:22:40.234Z,18.10
2022-12-09T11:27:51.525Z,25.75
2022-12-09T11:33:21.256Z,17.75
2022-12-09T11:38:42.337Z,16.65
2022-12-09T11:43:44.129Z,17.75
2022-12-09T11:48:56.757Z,16.63
2022-12-09T11:54:13.410Z,18.08
2022-12-09T11:59:34.769Z,21.80
2022-12-09T12:04:51.312Z,17.67
2022-12-09T12:09:56.310Z,17.35
2022-12-09T12:15:09.599Z,18.42
2022-12-09T12:20:13.224Z,19.15
2022-12-09T12:26:08.261Z,16.73
2022-12-09T12:31:37.401Z,17.30
2022-12-09T12:36:47.959Z,18.40
2022-12-09T12:42:26.442Z,15.27
2022-12-09T12:53:00.806Z,15.75
2022-12-09T12:58:16.763Z,16.37
2022-12-09T13:03:31.524Z,16.08
2022-12-09T13:08:43.639Z,16.85
2022-12-09T13:13:54.227Z,18.85
2022-12-09T13:19:22.320Z,16.30
2022-12-09T13:29:55.694Z,18.92
2022-12-09T13:35:13.722Z,19.52
2022-12-09T13:40:21.586Z,23.85
2022-12-09T13:45:36.162Z,19.52
2022-12-09T13:50:42.333Z,23.00
2022-12-09T13:56:04.491Z,19.95
2022-12-09T14:01:12.319Z,18.92
2022-12-09T14:06:27.493Z,24.77
2022-12-09T14:11:42.841Z,19.02
2022-12-09T14:16:44.680Z,20.10
2022-12-09T14:22:19.171Z,20.55
2022-12-09T14:27:31.767Z,20.88
2022-12-09T14:32:53.114Z,17.60
2022-12-09T14:38:27.436Z,20.77
2022-12-09T14:44:00.470Z,18.98
2022-12-09T14:49:21.008Z,69.78
2022-12-09T14:54:47.385Z,21.23
2022-12-09T14:59:52.411Z,25.40
2022-12-09T15:04:55.035Z,21.83
2022-12-09T15:10:08.001Z,19.88
2022-12-09T15:15:10.259Z,18.77
2022-12-09T15:20:27.684Z,18.92
2022-12-09T15:25:29.950Z,19.17
2022-12-09T15:30:37.190Z,25.02
2022-12-09T15:35:39.064Z,19.75
2022-12-09T15:41:03.644Z,25.80
2022-12-09T15:46:06.101Z,25.90
2022-12-09T15:51:15.798Z,23.58
2022-12-09T15:56:33.954Z,25.35
2022-12-09T16:01:36.824Z,23.00
2022-12-09T16:06:38.684Z,20.55
2022-12-09T16:11:46.130Z,25.30
2022-12-09T16:16:51.708Z,57.53
2022-12-09T16:21:59.928Z,25.35
2022-12-09T16:27:05.391Z,23.10
2022-12-09T16:32:16.291Z,23.48
2022-12-09T16:37:43.581Z,21.92
2022-12-09T16:42:45.588Z,27.70
2022-12-09T16:47:47.822Z,29.50
2022-12-09T16:52:49.986Z,24.55
2022-12-09T16:57:52.090Z,25.40
2022-12-09T17:03:26.871Z,22.92
2022-12-09T17:08:28.739Z,46.03
2022-12-09T17:13:30.913Z,26.45
2022-12-09T17:18:32.707Z,27.83
2022-12-09T17:23:39.605Z,40.22
2022-12-09T17:28:43.358Z,47.33
2022-12-09T17:33:45.435Z,25.95
2022-12-09T17:38:47.482Z,36.13
2022-12-09T17:43:49.438Z,35.80
2022-12-09T17:48:51.248Z,24.77
2022-12-09T17:53:53.078Z,30.08
2022-12-09T17:58:59.774Z,28.10
2022-12-09T18:04:07.896Z,26.53
2022-12-09T18:09:13.199Z,28.00
2022-12-09T18:14:16.209Z,29.05
2022-12-09T18:19:20.244Z,27.45
2022-12-09T18:24:22.210Z,30.33
2022-12-09T18:29:24.798Z,28.70
2022-12-09T18:34:28.114Z,27.73
2022-12-09T18:39:29.938Z,29.05
2022-12-09T18:44:31.692Z,27.33
2022-12-09T18:49:33.786Z,31.67
2022-12-09T18:54:36.559Z,30.85
2022-12-09T18:59:38.290Z,35.33
2022-12-09T19:04:40.029Z,33.25
2022-12-09T19:09:42.082Z,34.42
2022-12-09T19:14:43.835Z,36.88
2022-12-09T19:19:47.256Z,37.20
2022-12-09T19:24:49.048Z,37.60
2022-12-09T19:29:50.834Z,43.30
2022-12-09T19:34:52.900Z,34.35
2022-12-09T19:39:54.641Z,33.10
2022-12-09T19:45:06.443Z,36.13
2022-12-09T19:50:10.114Z,38.42
2022-12-09T19:55:13.423Z,36.85
2022-12-09T20:00:15.652Z,43.20
2022-12-09T20:05:18.103Z,33.80
2022-12-09T20:10:19.850Z,34.97
2022-12-09T20:15:21.598Z,36.03
2022-12-09T20:20:23.423Z,33.78
2022-12-09T20:25:25.186Z,34.80
2022-12-09T20:30:28.119Z,31.33
2022-12-09T20:35:29.920Z,32.15
2022-12-09T20:40:32.750Z,32.10
2022-12-09T20:45:39.166Z,34.00
2022-12-09T20:50:41.030Z,36.00
2022-12-09T20:55:42.775Z,40.33
2022-12-09T21:00:44.538Z,36.47
2022-12-09T21:05:47.036Z,37.10
2022-12-09T21:10:49.002Z,35.63
2022-12-09T21:15:50.840Z,38.05
2022-12-09T21:20:55.922Z,37.70
2022-12-09T21:26:04.640Z,37.28
2022-12-09T21:31:17.470Z,39.83
2022-12-09T21:36:23.464Z,37.40
2022-12-09T21:41:28.177Z,37.70
2022-12-09T21:46:34.940Z,35.15
2022-12-09T21:51:36.751Z,36.40
2022-12-09T21:56:38.548Z,34.15
2022-12-09T22:01:41.917Z,33.90
2022-12-09T22:06:49.135Z,36.88
2022-12-09T22:11:50.919Z,36.45
2022-12-09T22:16:52.946Z,36.72
2022-12-09T22:21:54.795Z,33.90
2022-12-09T22:26:56.651Z,38.63
2022-12-09T22:31:58.379Z,43.75
2022-12-09T22:37:14.913Z,38.47
2022-12-09T22:42:22.084Z,39.78
2022-12-09T22:47:23.986Z,41.22
2022-12-09T22:52:25.743Z,39.95
2022-12-09T22:57:27.617Z,42.17
2022-12-09T23:02:29.435Z,42.15
2022-12-09T23:07:31.246Z,41.58
2022-12-09T23:12:33.020Z,41.90
2022-12-09T23:17:34.846Z,43.60
2022-12-09T23:22:37.740Z,38.33
2022-12-09T23:27:39.590Z,43.67
2022-12-09T23:32:41.454Z,37.42
2022-12-09T23:37:43.196Z,37.50
2022-12-09T23:42:44.942Z,34.75
2022-12-09T23:47:46.992Z,38.03
2022-12-09T23:52:48.843Z,37.28
2022-12-09T23:57:50.585Z,35.67
